Time;durP1;ratioP1;P1;durP2;ratioP2;P2;SDS_P1;SDS_P2;PMS_P1;PMS_P2;Temp;Humidity;BMP_temperature;BMP_pressure;BME280_temperature;BME280_humidity;BME280_pressure;Samples;Min_cycle;Max_cycle;Signal;HPM_P1;HPM_P2
2022/05/23 00:01:42;;;;;;;3.33;1.92;;;19.00;74.40;;;;;;5053587;28;20028;-61
2022/05/23 00:04:07;;;;;;;2.15;1.48;;;19.00;74.40;;;;;;5053818;28;20143;-61
2022/05/23 00:06:33;;;;;;;5.25;1.50;;;19.00;74.50;;;;;;5053783;28;20481;-61
2022/05/23 00:08:59;;;;;;;3.13;1.58;;;19.00;74.40;;;;;;5053225;28;20544;-62
2022/05/23 00:11:24;;;;;;;3.03;1.52;;;19.00;74.50;;;;;;5053126;28;20036;-61
2022/05/23 00:13:50;;;;;;;6.63;1.70;;;19.00;74.50;;;;;;5035083;28;20021;-61
2022/05/23 00:16:20;;;;;;;2.83;1.67;;;19.00;74.50;;;;;;5033964;28;20022;-61
2022/05/23 00:18:46;;;;;;;2.15;1.55;;;19.00;74.50;;;;;;5032560;28;20486;-61
2022/05/23 00:21:12;;;;;;;3.33;1.35;;;18.90;74.50;;;;;;5033440;28;20025;-62
2022/05/23 00:23:37;;;;;;;1.75;1.25;;;18.90;74.50;;;;;;5033849;28;20034;-61
2022/05/23 00:26:04;;;;;;;2.15;1.45;;;18.90;74.50;;;;;;5033715;28;20072;-61
2022/05/23 00:28:30;;;;;;;2.08;1.73;;;18.90;74.60;;;;;;5032934;28;20056;-62
2022/05/23 00:30:55;;;;;;;2.47;1.35;;;18.90;74.60;;;;;;5032550;28;20065;-61
2022/05/23 00:36:05;;;;;;;2.92;1.70;;;18.90;74.70;;;;;;5033492;28;20164;-63
2022/05/23 00:38:31;;;;;;;4.43;1.77;;;18.90;74.70;;;;;;5014446;28;20045;-61
2022/05/23 00:44:12;;;;;;;2.63;1.45;;;18.90;74.70;;;;;;5052787;28;20084;-61
2022/05/23 00:46:50;;;;;;;2.30;1.77;;;18.90;74.70;;;;;;5052532;28;20072;-61
2022/05/23 00:49:18;;;;;;;2.33;1.60;;;18.90;74.80;;;;;;5034192;28;20029;-61
2022/05/23 00:51:44;;;;;;;2.33;1.50;;;18.90;74.70;;;;;;5052308;28;20540;-62
2022/05/23 00:54:11;;;;;;;2.17;1.70;;;18.90;74.80;;;;;;5052586;28;20028;-62
2022/05/23 00:56:43;;;;;;;3.60;1.95;;;18.90;74.80;;;;;;5034564;28;20025;-61
2022/05/23 00:59:10;;;;;;;4.18;1.90;;;18.90;74.80;;;;;;5034131;28;20032;-62
2022/05/23 01:01:38;;;;;;;7.38;1.80;;;18.90;74.80;;;;;;5069473;28;20486;-61
2022/05/23 01:04:06;;;;;;;6.20;1.80;;;18.90;74.80;;;;;;5053818;28;20036;-62
2022/05/23 01:06:33;;;;;;;2.92;1.75;;;18.90;74.80;;;;;;5072480;28;20027;-62
2022/05/23 01:08:59;;;;;;;1.80;1.70;;;18.90;74.80;;;;;;5054445;28;20059;-62
2022/05/23 01:11:26;;;;;;;2.53;1.70;;;18.90;74.80;;;;;;5072382;28;20032;-61
2022/05/23 01:13:53;;;;;;;4.32;2.35;;;18.90;74.90;;;;;;5072830;28;20033;-61
2022/05/23 01:16:21;;;;;;;4.97;2.13;;;18.90;74.90;;;;;;5040717;28;20025;-61
2022/05/23 01:18:47;;;;;;;3.05;1.75;;;18.90;74.90;;;;;;5033396;28;20140;-61
2022/05/23 01:21:28;;;;;;;2.80;1.73;;;18.90;75.00;;;;;;5051816;28;20494;-62
2022/05/23 01:24:07;;;;;;;6.90;1.67;;;18.90;75.00;;;;;;5051851;28;20041;-62
2022/05/23 01:26:33;;;;;;;4.30;1.90;;;18.80;74.80;;;;;;5033658;28;20020;-62
2022/05/23 01:28:59;;;;;;;2.55;1.80;;;18.90;74.90;;;;;;5051446;28;20025;-62
2022/05/23 01:31:25;;;;;;;1.98;1.38;;;18.80;74.90;;;;;;5063919;28;20040;-62
2022/05/23 01:33:50;;;;;;;2.65;1.70;;;18.90;75.00;;;;;;5071588;28;20067;-62
2022/05/23 01:36:16;;;;;;;4.13;1.67;;;18.80;74.90;;;;;;5053900;28;20036;-62
2022/05/23 01:38:42;;;;;;;2.97;1.60;;;18.90;75.00;;;;;;5053294;28;20024;-62
2022/05/23 01:41:08;;;;;;;3.05;1.67;;;18.90;75.00;;;;;;5053098;28;20036;-62
2022/05/23 01:43:34;;;;;;;7.00;1.70;;;18.80;74.90;;;;;;5053173;28;20438;-62
2022/05/23 01:46:00;;;;;;;4.97;2.00;;;18.80;75.00;;;;;;5060689;28;20123;-62
2022/05/23 01:48:26;;;;;;;3.40;1.92;;;18.80;75.00;;;;;;5032880;28;20543;-62
2022/05/23 01:50:52;;;;;;;1.80;1.58;;;18.80;75.00;;;;;;5051765;28;20170;-62
2022/05/23 01:53:18;;;;;;;4.30;1.70;;;18.80;75.00;;;;;;5051525;28;20111;-61
2022/05/23 01:55:43;;;;;;;3.35;1.98;;;18.80;75.00;;;;;;5033424;28;20496;-62
2022/05/23 03:17:20;;;;;;;3.53;1.70;;;18.70;75.30;;;;;;5084903;22;20474;-66
2022/05/23 03:19:46;;;;;;;6.68;1.70;;;18.70;75.30;;;;;;5072404;28;20139;-67
2022/05/23 03:31:30;;;;;;;3.38;2.00;;;18.70;75.40;;;;;;5075795;28;20103;-66
2022/05/23 03:33:56;;;;;;;2.15;1.60;;;18.70;75.40;;;;;;5089276;28;20111;-66
2022/05/23 03:36:22;;;;;;;3.85;1.85;;;18.70;75.40;;;;;;5076159;28;20536;-66
2022/05/23 03:38:47;;;;;;;2.90;2.00;;;18.60;75.40;;;;;;5095782;28;20020;-66
2022/05/23 03:41:14;;;;;;;8.73;2.08;;;18.70;75.50;;;;;;5095253;28;20128;-66
2022/05/23 03:43:39;;;;;;;7.95;1.80;;;18.70;75.50;;;;;;5093558;28;20032;-66
2022/05/23 03:46:08;;;;;;;5.85;2.40;;;18.70;75.50;;;;;;5075025;28;20032;-66
2022/05/23 03:48:34;;;;;;;2.55;1.85;;;18.70;75.50;;;;;;5091751;28;20103;-66
2022/05/23 03:51:00;;;;;;;4.20;1.70;;;18.70;75.50;;;;;;5093002;28;20143;-66
2022/05/23 03:53:26;;;;;;;5.65;1.73;;;18.70;75.50;;;;;;5092885;28;20031;-66
2022/05/23 03:55:52;;;;;;;4.72;1.98;;;18.70;75.50;;;;;;5075079;28;20539;-66
2022/05/23 03:58:17;;;;;;;4.63;1.58;;;18.70;75.50;;;;;;5092571;28;20024;-66
2022/05/23 04:00:48;;;;;;;3.17;2.00;;;18.60;75.50;;;;;;5073435;28;20086;-66
2022/05/23 04:03:18;;;;;;;4.25;2.10;;;18.70;75.50;;;;;;5086767;28;20082;-66
2022/05/23 04:05:44;;;;;;;4.10;1.98;;;18.60;75.50;;;;;;5092282;28;20028;-67
2022/05/23 04:08:10;;;;;;;2.65;1.80;;;18.70;75.60;;;;;;5073683;28;20036;-66
2022/05/23 04:10:36;;;;;;;5.85;1.88;;;18.60;75.60;;;;;;5092303;28;20023;-66
2022/05/23 04:13:02;;;;;;;3.17;2.22;;;18.60;75.60;;;;;;5092122;28;20370;-66
2022/05/23 04:15:31;;;;;;;3.95;2.30;;;18.60;76.30;;;;;;5074380;28;20023;-67
2022/05/23 04:17:57;;;;;;;4.35;2.35;;;18.60;75.60;;;;;;5071810;28;20086;-67
2022/05/23 04:20:23;;;;;;;6.97;2.45;;;18.60;75.60;;;;;;5092061;28;20032;-66
2022/05/23 04:22:49;;;;;;;6.28;2.65;;;18.60;75.60;;;;;;5092371;28;20466;-67
2022/05/23 04:25:14;;;;;;;2.50;2.30;;;18.60;75.60;;;;;;5092683;28;20028;-66
2022/05/23 04:27:40;;;;;;;4.97;1.83;;;18.60;75.60;;;;;;5091829;28;20032;-67
2022/05/23 04:30:08;;;;;;;3.30;1.88;;;18.60;75.70;;;;;;5092013;28;20039;-66
2022/05/23 04:35:22;;;;;;;5.28;2.00;;;18.60;75.80;;;;;;5083013;28;20031;-66
2022/05/23 04:37:50;;;;;;;4.33;2.00;;;18.60;75.90;;;;;;5071584;28;20029;-66
2022/05/23 04:40:27;;;;;;;8.13;2.15;;;18.60;75.80;;;;;;5089128;28;20481;-66
2022/05/23 04:42:53;;;;;;;5.65;2.55;;;18.60;75.80;;;;;;5073405;28;20028;-66
2022/05/23 04:45:19;;;;;;;4.80;2.10;;;18.60;75.80;;;;;;5091488;28;20020;-67
2022/05/23 04:50:30;;;;;;;3.42;2.70;;;18.60;75.90;;;;;;5092476;28;20089;-66
2022/05/23 04:52:57;;;;;;;8.40;2.63;;;18.60;76.00;;;;;;5091935;28;20024;-66
2022/05/23 04:55:24;;;;;;;5.38;2.35;;;18.60;76.00;;;;;;5092129;28;20385;-66
2022/05/23 04:57:50;;;;;;;3.25;2.10;;;18.60;75.90;;;;;;5091555;28;20026;-67
2022/05/23 05:00:18;;;;;;;6.93;2.30;;;18.60;76.00;;;;;;5073221;28;20043;-67
2022/05/23 05:02:45;;;;;;;7.50;2.17;;;18.60;76.10;;;;;;5073371;28;20035;-67
2022/05/23 05:05:11;;;;;;;11.18;2.53;;;18.60;76.20;;;;;;5091560;28;20021;-66
2022/05/23 05:07:37;;;;;;;6.05;2.28;;;18.60;76.30;;;;;;5073753;28;20020;-66
2022/05/23 05:10:04;;;;;;;6.30;2.40;;;18.60;76.40;;;;;;5085833;28;20409;-66
2022/05/23 05:12:30;;;;;;;5.18;2.80;;;18.60;76.50;;;;;;5070584;28;20129;-66
2022/05/23 05:14:56;;;;;;;4.50;2.53;;;18.60;76.70;;;;;;5071370;28;20464;-66
2022/05/23 05:17:21;;;;;;;3.83;2.60;;;18.60;76.80;;;;;;5070957;28;20398;-66
2022/05/23 05:19:47;;;;;;;5.57;2.55;;;18.60;76.80;;;;;;5086442;28;20101;-66
2022/05/23 05:22:13;;;;;;;7.88;3.08;;;18.60;76.90;;;;;;5091612;28;20024;-66
2022/05/23 05:24:39;;;;;;;4.47;2.33;;;18.60;77.60;;;;;;5091571;28;20028;-66
2022/05/23 05:27:05;;;;;;;4.68;3.03;;;18.60;78.00;;;;;;5090944;28;20028;-66
2022/05/23 05:29:30;;;;;;;4.28;2.42;;;18.60;78.10;;;;;;5090130;28;20034;-65
2022/05/23 05:32:12;;;;;;;5.13;2.25;;;18.60;78.00;;;;;;5072873;28;20106;-66
2022/05/23 05:34:40;;;;;;;2.67;2.13;;;18.60;77.90;;;;;;5090265;28;20020;-66
2022/05/23 05:37:15;;;;;;;12.73;2.92;;;18.60;77.80;;;;;;5072923;28;20028;-66
2022/05/23 05:39:43;;;;;;;4.85;2.63;;;18.60;77.80;;;;;;5090083;28;20028;-67
2022/05/23 05:42:30;;;;;;;2.78;1.85;;;18.60;77.70;;;;;;5091092;28;20362;-66
2022/05/23 05:45:01;;;;;;;4.30;2.67;;;18.60;77.90;;;;;;5077934;28;20028;-66
2022/05/23 05:47:30;;;;;;;7.55;2.10;;;18.60;77.90;;;;;;5082743;28;20032;-66
2022/05/23 05:50:00;;;;;;;5.78;1.80;;;18.60;77.90;;;;;;5084650;28;20082;-67
2022/05/23 05:52:29;;;;;;;3.78;2.10;;;18.60;77.90;;;;;;5091732;28;20059;-66
2022/05/23 05:54:55;;;;;;;3.00;2.15;;;18.60;78.70;;;;;;5072914;28;20605;-66
2022/05/23 05:57:22;;;;;;;3.10;1.83;;;18.60;78.00;;;;;;5072772;28;20043;-66
2022/05/23 05:59:49;;;;;;;9.57;2.08;;;18.60;78.00;;;;;;5090668;28;20024;-65
2022/05/23 06:02:15;;;;;;;3.40;2.08;;;18.50;77.90;;;;;;5090376;28;20024;-66
2022/05/23 06:04:41;;;;;;;2.15;1.80;;;18.50;78.10;;;;;;5070765;28;20036;-67
2022/05/23 06:12:34;;;;;;;5.20;2.47;;;18.60;78.10;;;;;;5090792;28;20042;-66
2022/05/23 06:15:00;;;;;;;6.78;2.22;;;18.60;78.20;;;;;;5089888;28;20028;-66
2022/05/23 06:17:26;;;;;;;2.85;2.28;;;18.60;78.20;;;;;;5088958;28;20081;-65
2022/05/23 06:19:51;;;;;;;4.45;2.28;;;18.60;78.30;;;;;;5084259;28;20043;-66
2022/05/23 06:22:18;;;;;;;3.80;2.35;;;18.60;78.40;;;;;;5070147;28;20024;-66
2022/05/23 06:24:49;;;;;;;5.03;2.22;;;18.60;78.40;;;;;;5070325;28;20110;-66
2022/05/23 06:27:14;;;;;;;2.88;2.22;;;18.60;78.40;;;;;;5070183;28;20032;-66
2022/05/23 06:29:40;;;;;;;5.00;2.55;;;18.60;78.40;;;;;;5069621;28;20043;-67
2022/05/23 06:32:06;;;;;;;2.97;2.03;;;18.60;78.50;;;;;;5069982;28;20070;-65
2022/05/23 06:34:32;;;;;;;4.57;2.33;;;18.60;78.50;;;;;;5058913;28;20028;-66
2022/05/23 06:36:59;;;;;;;3.40;2.65;;;18.60;78.50;;;;;;5072152;28;20127;-66
2022/05/23 06:39:25;;;;;;;4.50;2.17;;;18.60;78.50;;;;;;5089380;28;20035;-67
2022/05/23 06:41:51;;;;;;;4.38;2.30;;;18.60;78.60;;;;;;5071615;28;20028;-66
2022/05/23 06:44:17;;;;;;;4.28;2.40;;;18.60;78.70;;;;;;5089669;28;20381;-66
2022/05/23 06:46:43;;;;;;;3.35;2.33;;;18.60;78.60;;;;;;5090132;28;20385;-66
2022/05/23 06:49:09;;;;;;;7.68;2.72;;;18.60;78.70;;;;;;5088036;28;20024;-66
2022/05/23 06:51:36;;;;;;;8.63;2.08;;;18.60;78.70;;;;;;5089473;28;20048;-66
2022/05/23 06:54:02;;;;;;;4.75;2.47;;;18.60;78.70;;;;;;5069457;28;20021;-66
2022/05/23 06:56:30;;;;;;;2.92;2.33;;;18.70;78.70;;;;;;5089430;28;20524;-66
2022/05/23 06:58:56;;;;;;;3.72;2.30;;;18.60;78.80;;;;;;5089266;28;20066;-65
2022/05/23 07:01:22;;;;;;;6.30;2.80;;;18.60;78.90;;;;;;5089361;28;20422;-66
2022/05/23 07:03:48;;;;;;;8.45;2.85;;;18.70;79.00;;;;;;5070565;28;20071;-66
2022/05/23 07:14:27;;;;;;;8.38;3.25;;;18.60;79.30;;;;;;5089131;28;20130;-65
2022/05/23 07:16:54;;;;;;;4.75;3.17;;;18.60;79.40;;;;;;5089468;28;20472;-66
2022/05/23 07:19:20;;;;;;;6.35;3.17;;;18.60;79.50;;;;;;5087506;28;20428;-66
2022/05/23 07:21:45;;;;;;;5.90;2.80;;;18.60;79.60;;;;;;5089633;28;20166;-65
2022/05/23 07:24:11;;;;;;;4.97;3.40;;;18.60;79.60;;;;;;5089953;28;20099;-66
2022/05/23 07:26:37;;;;;;;4.47;2.92;;;18.60;79.70;;;;;;5087863;28;20103;-67
2022/05/23 07:29:04;;;;;;;10.48;4.05;;;18.60;79.90;;;;;;5058221;28;20439;-66
2022/05/23 07:31:30;;;;;;;6.13;2.85;;;18.60;79.80;;;;;;5085294;28;20086;-66
2022/05/23 07:33:56;;;;;;;6.03;3.25;;;18.70;79.70;;;;;;5089233;28;20032;-66
2022/05/23 07:36:22;;;;;;;8.68;3.20;;;18.70;79.80;;;;;;5069848;28;20098;-66
2022/05/23 07:38:47;;;;;;;6.80;2.97;;;18.80;79.80;;;;;;5089847;28;20047;-66
2022/05/23 07:41:14;;;;;;;6.78;3.10;;;18.80;79.70;;;;;;5091720;28;20024;-66
2022/05/23 07:43:41;;;;;;;5.00;3.35;;;18.80;79.50;;;;;;5073333;28;20056;-66
2022/05/23 07:46:12;;;;;;;7.22;3.35;;;18.90;79.40;;;;;;5090087;28;20341;-66
2022/05/23 07:48:41;;;;;;;3.70;2.80;;;18.90;79.40;;;;;;5057057;28;20059;-66
2022/05/23 07:51:09;;;;;;;8.00;3.10;;;18.90;79.50;;;;;;5084707;28;20103;-66
2022/05/23 08:01:48;;;;;;;10.90;2.97;;;18.80;79.80;;;;;;5090948;28;20055;-66
2022/05/23 08:04:14;;;;;;;5.68;3.10;;;18.80;79.90;;;;;;5069118;28;20029;-66
2022/05/23 08:06:40;;;;;;;6.95;2.80;;;18.80;80.00;;;;;;5072869;28;20024;-66
2022/05/23 08:09:07;;;;;;;7.85;3.70;;;18.80;80.10;;;;;;5074035;28;20481;-66
2022/05/23 08:11:33;;;;;;;6.60;4.00;;;18.80;80.00;;;;;;5092093;28;20048;-68
2022/05/23 08:13:59;;;;;;;8.80;3.65;;;18.80;80.00;;;;;;5074386;28;20051;-66
2022/05/23 08:16:24;;;;;;;7.68;3.55;;;18.80;80.00;;;;;;5092597;28;20456;-66
2022/05/23 08:18:50;;;;;;;13.18;4.20;;;18.80;80.10;;;;;;5091728;28;20465;-66
2022/05/23 08:21:16;;;;;;;10.27;4.32;;;18.80;80.60;;;;;;5092316;28;20094;-66
2022/05/23 08:23:42;;;;;;;5.60;4.05;;;18.80;80.80;;;;;;5092561;28;20028;-66
2022/05/23 08:26:09;;;;;;;13.32;4.35;;;18.80;80.80;;;;;;5092598;28;20471;-66
2022/05/23 08:28:34;;;;;;;5.55;3.63;;;18.80;80.90;;;;;;5091549;28;20413;-66
2022/05/23 08:31:00;;;;;;;12.43;3.25;;;18.80;80.80;;;;;;5091982;28;20032;-66
2022/05/23 08:33:26;;;;;;;8.32;3.20;;;18.80;81.20;;;;;;5091994;28;20362;-66
2022/05/23 08:35:52;;;;;;;4.78;3.00;;;18.80;81.60;;;;;;5072408;28;20039;-67
2022/05/23 08:38:18;;;;;;;4.38;3.08;;;18.80;81.20;;;;;;5088611;28;20027;-66
2022/05/23 08:40:49;;;;;;;2.97;2.67;;;18.80;81.40;;;;;;5071899;28;20433;-66
2022/05/23 08:43:37;;;;;;;4.30;2.85;;;18.80;81.40;;;;;;5071867;28;20025;-65
2022/05/23 08:46:04;;;;;;;6.88;3.60;;;18.80;81.10;;;;;;5054053;28;20028;-66
2022/05/23 08:48:42;;;;;;;3.97;3.10;;;18.90;80.60;;;;;;5071966;28;20028;-66
2022/05/23 08:51:18;;;;;;;12.90;3.35;;;18.90;80.50;;;;;;5083752;28;20035;-66
2022/05/23 08:54:13;;;;;;;6.70;3.33;;;18.90;80.20;;;;;;5073461;28;20110;-66
2022/05/23 08:56:45;;;;;;;6.88;3.75;;;18.90;80.00;;;;;;5091918;28;20028;-66
2022/05/23 08:59:34;;;;;;;6.47;3.28;;;18.90;79.90;;;;;;5090906;28;20114;-67
2022/05/23 09:02:05;;;;;;;9.07;4.05;;;18.90;79.80;;;;;;5091680;28;20026;-66
2022/05/23 09:04:44;;;;;;;5.60;3.47;;;18.90;79.70;;;;;;5091736;28;20216;-66
2022/05/23 09:07:31;;;;;;;5.30;3.03;;;19.00;79.70;;;;;;5072214;28;20039;-66
2022/05/23 09:10:01;;;;;;;7.10;3.00;;;19.00;79.60;;;;;;5090877;28;20492;-66
2022/05/23 09:12:27;;;;;;;8.57;3.65;;;19.00;80.30;;;;;;5071772;28;20115;-66
2022/05/23 09:14:53;;;;;;;8.05;3.60;;;19.00;79.80;;;;;;5071678;28;20623;-66
2022/05/23 09:17:22;;;;;;;4.90;3.50;;;19.00;80.10;;;;;;5053103;28;20498;-66
2022/05/23 09:20:03;;;;;;;5.50;3.53;;;19.00;80.20;;;;;;5070418;28;20021;-66
2022/05/23 09:22:47;;;;;;;4.10;3.20;;;19.00;79.80;;;;;;5053104;28;20040;-66
2022/05/23 09:25:16;;;;;;;3.78;3.03;;;19.00;79.70;;;;;;5070921;28;20532;-66
2022/05/23 09:28:01;;;;;;;5.85;3.20;;;19.00;79.50;;;;;;5071042;28;20493;-67
2022/05/23 09:30:27;;;;;;;5.18;2.80;;;19.00;79.40;;;;;;5070315;28;20029;-66
2022/05/23 09:33:01;;;;;;;5.38;3.35;;;19.00;79.40;;;;;;5052999;28;20432;-66
2022/05/23 09:35:46;;;;;;;5.18;2.80;;;19.10;79.40;;;;;;5073083;28;20604;-66
2022/05/23 09:38:22;;;;;;;5.32;3.00;;;19.10;80.20;;;;;;5090666;28;20059;-66
2022/05/23 09:40:49;;;;;;;6.03;3.28;;;19.10;79.90;;;;;;5072359;28;20326;-67
2022/05/23 09:49:10;;;;;;;6.03;3.17;;;19.10;79.60;;;;;;5072818;28;20112;-67
2022/05/23 09:51:57;;;;;;;10.70;3.03;;;19.10;79.60;;;;;;5080505;28;20042;-66
2022/05/23 09:54:54;;;;;;;5.72;3.38;;;19.10;80.40;;;;;;5090630;28;20028;-66
2022/05/23 09:57:24;;;;;;;6.43;3.20;;;19.10;80.60;;;;;;5072478;28;20515;-66
2022/05/23 10:00:00;;;;;;;7.88;2.90;;;19.20;79.70;;;;;;5071348;28;20508;-66
2022/05/23 10:02:39;;;;;;;8.35;3.28;;;19.20;80.00;;;;;;5090649;28;20020;-66
2022/05/23 10:05:27;;;;;;;3.88;2.60;;;19.20;79.70;;;;;;5090485;28;20020;-66
2022/05/23 10:07:56;;;;;;;8.90;2.65;;;19.20;79.50;;;;;;5089446;28;20571;-66
2022/05/23 10:10:25;;;;;;;8.88;3.80;;;19.20;80.10;;;;;;5090212;28;20042;-66
2022/05/23 10:12:51;;;;;;;4.25;3.08;;;19.30;80.00;;;;;;5072283;28;20110;-66
2022/05/23 10:15:28;;;;;;;6.68;3.08;;;19.30;79.90;;;;;;5071862;28;20131;-66
2022/05/23 10:18:04;;;;;;;7.57;3.40;;;19.20;79.60;;;;;;5089498;28;20043;-66
2022/05/23 10:20:39;;;;;;;5.10;3.28;;;19.30;79.60;;;;;;5087414;28;20235;-67
2022/05/23 10:23:13;;;;;;;8.15;3.50;;;19.30;79.50;;;;;;5082782;28;20028;-66
2022/05/23 10:26:03;;;;;;;7.05;3.42;;;19.20;79.60;;;;;;5090132;28;20025;-66
2022/05/23 10:28:31;;;;;;;;;;;19.30;79.70;;;;;;5090592;28;20468;-66
2022/05/23 10:31:03;;;;;;;4.97;2.95;;;19.30;79.50;;;;;;5071473;28;19918;-66
2022/05/23 10:33:30;;;;;;;6.63;3.13;;;19.30;79.60;;;;;;5090108;28;20024;-66
2022/05/23 12:49:40;;;;;;;9.18;2.05;;;19.30;80.70;;;;;;5112129;28;20037;-63
2022/05/23 12:52:17;;;;;;;8.80;1.92;;;19.30;80.60;;;;;;5094192;28;20054;-64
2022/05/23 12:55:20;;;;;;;6.10;2.00;;;19.30;80.80;;;;;;5096225;28;20028;-63
2022/05/23 12:57:55;;;;;;;6.25;2.00;;;19.30;80.80;;;;;;5091855;28;20032;-63
2022/05/23 13:00:31;;;;;;;5.50;1.75;;;19.30;81.30;;;;;;5092195;28;20095;-63
2022/05/23 13:03:18;;;;;;;8.40;2.00;;;19.30;80.90;;;;;;5074023;28;20035;-64
2022/05/23 13:05:54;;;;;;;5.60;1.83;;;19.30;81.10;;;;;;5073921;28;20032;-63
2022/05/23 13:08:42;;;;;;;9.50;1.73;;;19.30;81.30;;;;;;5093314;28;20074;-63
2022/05/23 13:11:23;;;;;;;4.38;2.05;;;19.30;80.90;;;;;;5094017;28;20054;-63
2022/05/23 13:13:50;;;;;;;4.18;1.98;;;19.30;80.90;;;;;;5110367;28;20077;-63
2022/05/23 13:16:31;;;;;;;5.93;1.77;;;19.30;81.30;;;;;;5079718;28;20028;-63
2022/05/23 13:22:05;;;;;;;3.92;1.95;;;19.40;81.10;;;;;;5092721;28;20046;-63
2022/05/23 15:54:21;;;;;;;6.88;2.08;;;19.40;85.20;;;;;;5095140;28;20104;-64
2022/05/23 15:56:48;;;;;;;6.68;2.25;;;19.30;85.10;;;;;;5107436;28;20074;-64
2022/05/23 15:59:18;;;;;;;5.32;1.83;;;19.30;85.10;;;;;;5108597;28;20472;-64
2022/05/23 16:01:43;;;;;;;4.38;2.42;;;19.30;85.00;;;;;;5108864;28;20384;-64
2022/05/23 16:04:11;;;;;;;5.22;2.25;;;19.30;85.00;;;;;;5109158;28;20133;-64
2022/05/23 16:06:37;;;;;;;12.23;2.72;;;19.30;85.00;;;;;;5109010;28;20116;-64
2022/05/23 16:09:03;;;;;;;13.48;2.90;;;19.30;84.90;;;;;;5109065;28;20363;-64
2022/05/23 16:11:39;;;;;;;7.40;2.50;;;19.30;84.90;;;;;;5092241;28;20047;-64
2022/05/23 16:14:14;;;;;;;5.75;1.75;;;19.30;84.90;;;;;;5071608;28;20031;-64
2022/05/23 16:16:43;;;;;;;6.28;1.77;;;19.30;84.90;;;;;;5073106;28;20031;-64
2022/05/23 16:19:11;;;;;;;10.52;1.80;;;19.30;84.90;;;;;;5072408;28;20024;-64
2022/05/23 16:21:37;;;;;;;4.65;1.63;;;19.20;86.40;;;;;;5090337;28;20016;-63
2022/05/23 16:24:04;;;;;;;10.68;2.45;;;19.20;86.80;;;;;;5072511;28;20510;-63
2022/05/23 16:26:30;;;;;;;3.67;1.88;;;19.20;87.60;;;;;;5071957;28;20543;-64
2022/05/23 16:28:56;;;;;;;6.85;1.88;;;19.20;88.70;;;;;;5071958;28;20028;-64
2022/05/23 16:31:22;;;;;;;2.30;1.15;;;19.20;88.40;;;;;;5072126;28;20093;-64
2022/05/23 16:36:35;;;;;;;19.08;2.50;;;19.10;89.60;;;;;;5091875;28;20097;-64
2022/05/23 16:39:05;;;;;;;5.35;2.20;;;19.10;90.00;;;;;;5073144;28;20024;-64
2022/05/23 16:44:27;;;;;;;4.10;1.55;;;19.10;90.10;;;;;;5132174;22;20461;-67
2022/05/23 16:46:53;;;;;;;2.53;1.27;;;19.00;90.00;;;;;;5131734;27;20038;-67
2022/05/23 16:49:18;;;;;;;5.20;1.60;;;19.00;90.00;;;;;;5131765;27;20023;-67
2022/05/23 16:51:44;;;;;;;4.22;1.48;;;19.10;90.00;;;;;;5132183;27;20059;-67
2022/05/23 16:54:13;;;;;;;3.90;1.58;;;19.00;89.80;;;;;;5114286;27;20162;-67
2022/05/23 16:56:39;;;;;;;3.50;1.63;;;19.00;89.70;;;;;;5114336;27;20038;-67
2022/05/23 16:59:06;;;;;;;7.25;1.85;;;19.00;89.50;;;;;;5112359;27;20034;-66
2022/05/23 17:01:32;;;;;;;3.83;1.65;;;19.00;89.40;;;;;;5132694;27;20026;-67
2022/05/23 17:03:59;;;;;;;4.70;1.70;;;19.00;89.50;;;;;;5132753;27;20024;-66
2022/05/23 17:06:25;;;;;;;4.03;1.98;;;19.00;89.70;;;;;;5132607;27;20541;-66
2022/05/23 17:08:52;;;;;;;9.07;2.25;;;19.00;89.60;;;;;;5132335;27;20102;-66
2022/05/23 17:11:17;;;;;;;3.50;1.30;;;19.00;89.40;;;;;;5113449;27;20488;-67
2022/05/23 17:13:43;;;;;;;9.23;3.08;;;19.00;89.40;;;;;;5120372;27;20045;-66
2022/05/23 17:16:09;;;;;;;9.25;2.33;;;19.00;89.50;;;;;;5137740;27;20026;-66
2022/05/23 17:18:36;;;;;;;5.63;2.08;;;19.00;89.80;;;;;;5131838;27;20472;-66
2022/05/23 17:21:05;;;;;;;6.57;2.17;;;18.90;89.70;;;;;;5132058;27;20084;-66
2022/05/23 17:23:34;;;;;;;6.05;1.70;;;19.00;89.80;;;;;;5131856;27;20035;-66
2022/05/23 17:26:03;;;;;;;5.53;2.58;;;19.00;89.80;;;;;;5131306;27;20123;-67
2022/05/23 17:28:30;;;;;;;3.67;1.80;;;19.00;89.50;;;;;;5130288;27;20027;-66
2022/05/23 17:30:57;;;;;;;4.43;1.77;;;19.00;89.40;;;;;;5132038;27;20144;-66
2022/05/23 17:33:23;;;;;;;6.50;1.80;;;19.00;89.20;;;;;;5132143;27;20029;-66
2022/05/23 17:35:49;;;;;;;5.68;1.95;;;19.00;89.00;;;;;;5132185;27;20480;-66
2022/05/23 17:38:15;;;;;;;4.95;1.83;;;19.00;88.90;;;;;;5132186;27;20057;-66
2022/05/23 17:40:41;;;;;;;7.65;2.47;;;19.00;88.70;;;;;;5131750;27;20137;-66
2022/05/23 17:43:07;;;;;;;5.15;1.90;;;19.00;88.80;;;;;;5130321;27;20102;-66
2022/05/23 17:45:33;;;;;;;5.03;1.83;;;19.00;88.90;;;;;;5113571;27;20035;-67
2022/05/23 17:47:58;;;;;;;9.15;1.90;;;19.00;88.80;;;;;;5132395;27;20019;-68
2022/05/23 17:50:24;;;;;;;2.20;1.35;;;19.00;88.70;;;;;;5130265;27;20023;-66
2022/05/23 17:52:51;;;;;;;3.38;1.38;;;19.00;88.80;;;;;;5131412;27;20027;-66
2022/05/23 17:55:21;;;;;;;2.78;1.63;;;19.00;89.00;;;;;;5132019;27;20072;-66
2022/05/23 17:57:48;;;;;;;5.45;2.00;;;19.00;88.90;;;;;;5129642;27;20019;-67
2022/05/23 18:00:16;;;;;;;8.98;1.88;;;19.00;88.90;;;;;;5110751;28;20035;-66
2022/05/23 18:02:42;;;;;;;8.02;1.70;;;19.00;89.00;;;;;;5110882;28;20035;-66
2022/05/23 18:05:15;;;;;;;3.72;1.50;;;18.90;88.90;;;;;;5095802;28;20028;-66
2022/05/23 18:07:47;;;;;;;3.65;1.85;;;18.90;89.00;;;;;;5112424;28;20118;-66
2022/05/23 18:19:13;;;;;;;11.95;1.77;;;18.90;89.10;;;;;;5110133;28;20601;-67
2022/05/23 18:21:42;;;;;;;8.15;1.70;;;18.90;89.30;;;;;;5090419;28;20465;-68
2022/05/23 18:24:09;;;;;;;11.93;2.38;;;18.90;89.10;;;;;;5091711;28;20443;-68
2022/05/23 18:26:36;;;;;;;4.78;2.10;;;18.90;89.30;;;;;;5120407;27;20443;-68
2022/05/23 18:29:01;;;;;;;6.88;1.88;;;18.90;89.30;;;;;;5112103;27;20551;-68
2022/05/23 18:31:28;;;;;;;3.13;1.65;;;18.90;89.30;;;;;;5111837;27;20031;-68
2022/05/23 18:33:53;;;;;;;8.85;2.22;;;18.90;89.40;;;;;;5112119;27;20088;-68
2022/05/23 18:36:19;;;;;;;6.75;1.30;;;18.90;89.40;;;;;;5131063;27;20019;-67
2022/05/23 18:38:45;;;;;;;5.10;1.60;;;18.90;89.40;;;;;;5128917;27;20031;-69
2022/05/23 18:41:11;;;;;;;5.55;1.52;;;18.90;89.60;;;;;;5131630;27;20023;-68
2022/05/23 18:43:37;;;;;;;8.63;1.55;;;18.90;89.80;;;;;;5125577;27;20028;-68
2022/05/23 18:46:03;;;;;;;2.92;1.30;;;18.80;89.90;;;;;;5110587;28;20043;-67
2022/05/23 18:51:14;;;;;;;3.20;1.80;;;18.80;89.90;;;;;;5130404;27;20121;-67
2022/05/23 18:53:40;;;;;;;2.90;1.23;;;18.80;89.90;;;;;;5112723;28;20059;-67
2022/05/23 18:56:06;;;;;;;9.80;1.40;;;18.80;90.30;;;;;;5130640;27;20061;-67
2022/05/23 18:58:33;;;;;;;2.30;1.25;;;18.80;89.90;;;;;;5127930;27;20114;-67
2022/05/23 19:00:58;;;;;;;5.13;1.75;;;18.80;89.90;;;;;;5130784;28;20023;-67
2022/05/23 19:03:24;;;;;;;6.90;1.40;;;18.80;89.90;;;;;;5112579;28;20022;-67
2022/05/23 19:05:50;;;;;;;6.95;1.67;;;18.80;89.90;;;;;;5130658;28;20023;-67
2022/05/23 19:08:16;;;;;;;3.70;1.38;;;18.80;90.00;;;;;;5129789;28;20026;-67
2022/05/23 19:10:45;;;;;;;8.73;1.88;;;18.80;90.00;;;;;;5111513;28;20031;-67
2022/05/23 19:13:11;;;;;;;3.53;1.33;;;18.80;90.10;;;;;;5112444;28;20436;-66
2022/05/23 19:15:37;;;;;;;7.47;1.92;;;18.80;90.10;;;;;;5129334;28;20474;-67
2022/05/23 19:18:03;;;;;;;3.15;1.50;;;18.80;90.20;;;;;;5129964;28;20102;-67
2022/05/23 19:20:29;;;;;;;3.33;1.70;;;18.80;90.10;;;;;;5130291;28;20020;-67
2022/05/23 19:22:54;;;;;;;2.95;1.42;;;18.80;90.20;;;;;;5129865;28;20024;-67
2022/05/23 19:25:21;;;;;;;3.45;2.00;;;18.80;90.20;;;;;;5111924;28;20072;-66
2022/05/23 19:27:46;;;;;;;6.40;2.05;;;18.80;90.20;;;;;;5108452;28;20023;-67
2022/05/23 19:30:13;;;;;;;5.95;1.88;;;18.80;90.30;;;;;;5128844;28;20027;-66
2022/05/23 19:32:38;;;;;;;9.05;1.70;;;18.80;90.30;;;;;;5127282;28;20118;-67
2022/05/23 19:35:05;;;;;;;7.32;1.90;;;18.80;90.40;;;;;;5108415;28;20111;-66
2022/05/23 19:37:31;;;;;;;6.28;1.63;;;18.80;90.40;;;;;;5124509;28;20076;-67
2022/05/23 19:39:57;;;;;;;4.20;1.40;;;18.80;90.30;;;;;;5110702;28;20030;-66
2022/05/23 19:42:23;;;;;;;6.72;2.20;;;18.80;90.30;;;;;;5110640;28;20023;-66
2022/05/23 19:44:49;;;;;;;5.03;1.63;;;18.80;90.30;;;;;;5129037;28;20171;-66
2022/05/23 19:47:16;;;;;;;5.07;2.80;;;18.80;90.30;;;;;;5111240;28;20019;-66
2022/05/23 19:49:42;;;;;;;6.38;1.98;;;18.80;90.40;;;;;;5130611;27;20023;-66
2022/05/23 19:52:09;;;;;;;4.90;1.90;;;18.80;90.40;;;;;;5133712;27;20679;-66
2022/05/23 19:54:35;;;;;;;3.22;1.58;;;18.80;90.40;;;;;;5133176;27;20023;-67
2022/05/23 19:57:02;;;;;;;6.22;2.38;;;18.80;90.30;;;;;;5133576;27;20106;-66
2022/05/23 19:59:28;;;;;;;6.45;2.10;;;18.80;90.20;;;;;;5130672;27;20031;-67
2022/05/23 20:07:27;;;;;;;7.35;2.13;;;18.80;90.20;;;;;;5127928;27;21016;-66
2022/05/23 20:09:53;;;;;;;10.70;2.20;;;18.80;90.30;;;;;;5127515;27;20106;-67